createdAt,value
2023-03-17T00:00:39.177Z,22.95
2023-03-17T00:01:39.194Z,22.94
2023-03-17T00:02:39.218Z,22.94
2023-03-17T00:03:39.227Z,22.94
2023-03-17T00:04:39.208Z,22.93
2023-03-17T00:05:39.205Z,22.94
2023-03-17T00:06:39.219Z,22.95
2023-03-17T00:07:39.226Z,22.95
2023-03-17T00:08:39.224Z,22.95
2023-03-17T00:09:39.231Z,22.95
2023-03-17T00:10:39.245Z,22.95
2023-03-17T00:11:39.260Z,22.95
2023-03-17T00:12:39.260Z,22.94
2023-03-17T00:13:39.256Z,22.94
2023-03-17T00:14:39.263Z,22.96
2023-03-17T00:15:39.320Z,22.94
2023-03-17T00:16:39.316Z,22.92
2023-03-17T00:17:39.292Z,22.93
2023-03-17T00:18:39.300Z,22.94
2023-03-17T00:19:39.319Z,22.92
2023-03-17T00:20:39.319Z,22.93
2023-03-17T00:39:39.478Z,22.90
2023-03-17T00:41:39.506Z,22.89
2023-03-17T00:42:39.520Z,22.89
2023-03-17T00:49:39.532Z,22.88
2023-03-17T01:24:39.637Z,22.86
2023-03-17T01:25:39.635Z,22.86
2023-03-17T01:26:39.633Z,22.86
2023-03-17T01:27:39.701Z,22.87
2023-03-17T01:28:39.664Z,22.86
2023-03-17T01:29:39.654Z,22.87
2023-03-17T01:30:39.659Z,22.86
2023-03-17T01:31:39.734Z,22.85
2023-03-17T01:33:39.682Z,22.84
2023-03-17T01:34:39.680Z,22.86
2023-03-17T01:35:39.738Z,22.86
2023-03-17T01:36:39.699Z,22.86
2023-03-17T01:37:39.711Z,22.86
2023-03-17T01:38:39.713Z,22.87
2023-03-17T01:39:39.721Z,22.85
2023-03-17T01:40:39.706Z,22.84
2023-03-17T01:41:39.713Z,22.85
2023-03-17T01:42:39.740Z,22.85
2023-03-17T01:43:39.735Z,22.84
2023-03-17T01:44:39.736Z,22.84
2023-03-17T01:45:39.749Z,22.84
2023-03-17T01:46:39.734Z,22.84
2023-03-17T01:47:39.790Z,22.84
2023-03-17T01:48:39.736Z,22.84
2023-03-17T01:49:39.755Z,22.83
2023-03-17T01:50:39.750Z,22.83
2023-03-17T01:51:39.767Z,22.84
2023-03-17T01:52:39.778Z,22.83
2023-03-17T01:53:39.811Z,22.83
2023-03-17T01:54:39.818Z,22.82
2023-03-17T01:55:39.789Z,22.82
2023-03-17T01:56:39.804Z,22.83
2023-03-17T01:57:39.811Z,22.83
2023-03-17T01:58:39.824Z,22.83
2023-03-17T01:59:39.835Z,22.83
2023-03-17T02:00:39.904Z,22.82
2023-03-17T02:01:39.850Z,22.82
2023-03-17T02:02:39.835Z,22.82
2023-03-17T02:03:39.857Z,22.83
2023-03-17T02:04:39.905Z,22.83
2023-03-17T02:05:39.871Z,22.82
2023-03-17T02:06:55.088Z,22.83
2023-03-17T02:08:39.877Z,22.82
2023-03-17T02:09:39.877Z,22.82
2023-03-17T02:10:39.868Z,22.82
2023-03-17T02:11:39.872Z,22.82
2023-03-17T02:12:39.893Z,22.81
2023-03-17T02:13:39.886Z,22.81
2023-03-17T02:14:39.927Z,22.81
2023-03-17T02:15:39.923Z,22.81
2023-03-17T02:16:39.988Z,22.80
2023-03-17T02:17:39.915Z,22.81
2023-03-17T02:18:39.919Z,22.81
2023-03-17T02:19:39.927Z,22.81
2023-03-17T02:20:39.933Z,22.82
2023-03-17T02:21:39.936Z,22.82
2023-03-17T02:22:39.945Z,22.81
2023-03-17T02:23:39.951Z,22.81
2023-03-17T02:24:39.965Z,22.81
2023-03-17T02:25:39.960Z,22.80
2023-03-17T02:26:39.959Z,22.80
2023-03-17T02:27:39.972Z,22.80
2023-03-17T02:28:39.981Z,22.79
2023-03-17T02:29:39.969Z,22.78
2023-03-17T02:30:40.020Z,22.79
2023-03-17T02:31:39.980Z,22.79
2023-03-17T02:32:40.121Z,22.78
2023-03-17T02:33:40.012Z,22.79
2023-03-17T02:34:40.004Z,22.78
2023-03-17T02:35:40.063Z,22.78
2023-03-17T02:36:40.099Z,22.79
2023-03-17T02:37:40.039Z,22.78
2023-03-17T02:38:40.075Z,22.79
2023-03-17T02:39:40.087Z,22.77
2023-03-17T02:40:40.060Z,22.77
2023-03-17T02:41:40.072Z,22.77
2023-03-17T02:42:40.091Z,22.77
2023-03-17T02:43:40.092Z,22.77
2023-03-17T02:44:40.105Z,22.77
2023-03-17T02:45:40.123Z,22.77
2023-03-17T02:46:40.121Z,22.78
2023-03-17T02:47:40.141Z,22.77
2023-03-17T02:48:40.136Z,22.76
2023-03-17T02:49:40.150Z,22.77
2023-03-17T02:50:40.170Z,22.77
2023-03-17T02:51:40.143Z,22.76
2023-03-17T02:52:40.160Z,22.77
2023-03-17T02:53:40.160Z,22.76
2023-03-17T02:54:40.184Z,22.76
2023-03-17T02:55:40.180Z,22.75
2023-03-17T02:56:40.200Z,22.76
2023-03-17T02:57:40.205Z,22.76
2023-03-17T02:58:40.232Z,22.76
2023-03-17T11:55:42.236Z,24.45
2023-03-17T11:56:42.267Z,24.40
2023-03-17T11:57:42.252Z,24.30
2023-03-17T11:58:42.303Z,24.17
2023-03-17T11:59:42.266Z,24.05
2023-03-17T12:00:43.843Z,23.89
2023-03-17T12:01:42.306Z,23.83
2023-03-17T12:02:42.325Z,23.67
2023-03-17T12:03:42.413Z,23.48
2023-03-17T12:04:42.458Z,23.42
2023-03-17T12:06:42.416Z,23.41
2023-03-17T12:07:42.414Z,23.46
2023-03-17T12:08:42.435Z,23.47
2023-03-17T12:09:42.449Z,23.45
2023-03-17T12:10:42.471Z,23.43
2023-03-17T12:12:42.552Z,23.59
2023-03-17T12:13:42.541Z,23.70
2023-03-17T12:14:42.568Z,23.68
2023-03-17T12:15:42.621Z,23.61
2023-03-17T12:16:42.598Z,23.60
2023-03-17T12:17:42.604Z,23.53
2023-03-17T12:18:42.656Z,23.57
2023-03-17T12:19:42.678Z,23.58
2023-03-17T12:20:42.669Z,23.58
2023-03-17T12:21:42.709Z,23.61
2023-03-17T12:22:42.715Z,23.59
2023-03-17T12:23:42.752Z,23.51
2023-03-17T12:24:42.753Z,23.40
2023-03-17T12:25:42.757Z,23.29
2023-03-17T12:26:42.812Z,23.36
2023-03-17T12:27:42.812Z,23.47
2023-03-17T12:28:42.858Z,23.58
2023-03-17T12:29:42.845Z,23.69
2023-03-17T12:30:42.868Z,23.78
2023-03-17T12:31:42.838Z,23.87
2023-03-17T12:32:42.889Z,23.94
2023-03-17T12:33:43.503Z,24.00
2023-03-17T12:34:42.860Z,24.06
2023-03-17T12:35:42.899Z,24.11
2023-03-17T12:36:42.844Z,24.16
2023-03-17T12:37:42.946Z,24.20
2023-03-17T12:38:42.872Z,24.22
2023-03-17T12:39:42.858Z,24.26
2023-03-17T12:40:42.830Z,24.30
2023-03-17T12:41:42.838Z,24.32
2023-03-17T12:42:42.844Z,24.34
2023-03-17T12:43:42.817Z,24.36
2023-03-17T12:44:42.897Z,24.36
2023-03-17T12:45:42.800Z,24.38
2023-03-17T12:46:42.837Z,24.38
2023-03-17T12:47:42.780Z,24.39
2023-03-17T12:48:42.766Z,24.40
2023-03-17T12:49:42.767Z,24.41
2023-03-17T12:50:44.470Z,24.42
2023-03-17T12:51:42.759Z,24.44
2023-03-17T12:52:42.875Z,24.45
2023-03-17T12:53:42.729Z,24.47
2023-03-17T12:54:42.771Z,24.48
2023-03-17T12:55:42.739Z,24.49
2023-03-17T12:56:42.758Z,24.49
2023-03-17T12:57:42.725Z,24.50
2023-03-17T12:58:42.686Z,24.49
2023-03-17T12:59:42.732Z,24.50
2023-03-17T13:00:42.677Z,24.50
2023-03-17T13:01:42.705Z,24.49
2023-03-17T13:02:42.799Z,24.49
2023-03-17T13:03:42.712Z,24.49
2023-03-17T13:04:46.978Z,24.51
2023-03-17T13:05:42.645Z,24.51
2023-03-17T13:06:42.642Z,24.53
2023-03-17T13:07:42.625Z,24.54
2023-03-17T13:08:42.621Z,24.56
2023-03-17T13:09:42.625Z,24.58
2023-03-17T13:10:42.622Z,24.59
2023-03-17T13:11:42.617Z,24.63
2023-03-17T13:12:42.620Z,24.64
2023-03-17T13:13:42.584Z,24.65
2023-03-17T13:14:42.606Z,24.67
2023-03-17T13:15:42.596Z,24.68
2023-03-17T13:16:42.562Z,24.71
2023-03-17T13:17:42.544Z,24.72
2023-03-17T13:18:42.529Z,24.73
2023-03-17T13:19:42.532Z,24.75
2023-03-17T13:20:42.493Z,24.76
2023-03-17T13:21:42.480Z,24.77
2023-03-17T13:22:42.489Z,24.78
2023-03-17T13:23:42.450Z,24.78
2023-03-17T13:24:42.476Z,24.80
2023-03-17T13:25:42.419Z,24.81
2023-03-17T13:26:42.430Z,24.82
2023-03-17T13:27:42.380Z,24.83
2023-03-17T13:28:42.375Z,24.84
2023-03-17T13:29:42.344Z,24.85
2023-03-17T13:30:42.333Z,24.86
2023-03-17T13:31:42.366Z,24.88
2023-03-17T13:32:42.325Z,24.90
2023-03-17T13:33:42.281Z,24.91
2023-03-17T13:34:42.275Z,24.91
2023-03-17T13:35:42.285Z,24.93
2023-03-17T13:36:42.233Z,24.94
2023-03-17T13:37:42.224Z,24.94
2023-03-17T13:38:42.203Z,24.95
2023-03-17T13:39:42.189Z,24.95
2023-03-17T13:40:42.172Z,24.96
2023-03-17T13:41:42.130Z,24.97
2023-03-17T13:42:42.107Z,24.96
2023-03-17T13:43:43.555Z,24.96
2023-03-17T13:44:42.083Z,24.95
2023-03-17T13:45:42.057Z,24.96
2023-03-17T13:46:42.147Z,24.96
2023-03-17T13:47:42.043Z,24.96
2023-03-17T13:48:42.011Z,24.97
2023-03-17T13:49:41.979Z,24.98
2023-03-17T13:50:41.977Z,24.98
2023-03-17T13:51:52.774Z,24.99
2023-03-17T13:52:42.953Z,24.98
2023-03-17T13:53:41.938Z,24.99
2023-03-17T13:54:41.958Z,24.99
2023-03-17T13:55:41.959Z,24.99
2023-03-17T13:56:41.898Z,25.00
2023-03-17T13:57:41.865Z,24.99
2023-03-17T13:58:41.849Z,24.98
2023-03-17T13:59:41.826Z,24.98
2023-03-17T14:00:41.945Z,24.98
2023-03-17T14:01:41.783Z,24.97
2023-03-17T14:02:41.786Z,24.96
2023-03-17T14:03:41.845Z,24.95
2023-03-17T14:04:41.751Z,24.95
2023-03-17T14:05:41.714Z,24.93
2023-03-17T14:06:41.710Z,24.95
2023-03-17T14:07:41.720Z,24.94
2023-03-17T14:08:41.685Z,24.91
2023-03-17T14:09:41.667Z,24.90
2023-03-17T14:10:41.698Z,24.90
2023-03-17T14:11:41.628Z,24.89
2023-03-17T14:12:41.597Z,24.89
2023-03-17T14:13:41.591Z,24.89
2023-03-17T14:14:41.588Z,24.89
2023-03-17T14:15:41.572Z,24.90
2023-03-17T14:16:41.602Z,24.90
2023-03-17T14:17:41.538Z,24.90
2023-03-17T14:18:41.506Z,24.89
2023-03-17T14:19:41.667Z,24.88
2023-03-17T14:20:41.501Z,24.88
2023-03-17T14:21:41.437Z,24.87
2023-03-17T14:22:43.798Z,24.86
2023-03-17T14:23:41.397Z,24.85
2023-03-17T14:24:41.385Z,24.85
2023-03-17T14:25:41.380Z,24.84
2023-03-17T14:26:41.354Z,24.85
2023-03-17T14:27:41.359Z,24.85
2023-03-17T14:28:41.309Z,24.85
2023-03-17T14:29:41.302Z,24.86
2023-03-17T14:30:41.307Z,24.86
2023-03-17T14:31:41.274Z,24.86
2023-03-17T14:32:41.289Z,24.86
2023-03-17T14:33:41.217Z,24.85
2023-03-17T14:34:41.197Z,24.85
2023-03-17T14:35:41.266Z,24.85
2023-03-17T14:36:41.194Z,24.84
2023-03-17T14:37:41.179Z,24.83
2023-03-17T14:38:41.153Z,24.84
2023-03-17T14:39:41.141Z,24.83
2023-03-17T14:40:41.134Z,24.83
2023-03-17T14:41:41.106Z,24.84
2023-03-17T14:42:41.083Z,24.84
2023-03-17T14:43:41.090Z,24.84
2023-03-17T14:44:41.058Z,24.86
2023-03-17T14:45:41.177Z,24.89
2023-03-17T14:46:41.051Z,24.91
2023-03-17T14:47:41.034Z,24.92
2023-03-17T14:48:40.993Z,24.92
2023-03-17T14:49:40.949Z,24.94
2023-03-17T14:50:40.940Z,24.94
2023-03-17T14:51:40.916Z,24.95
2023-03-17T14:52:40.910Z,24.95
2023-03-17T14:53:40.895Z,24.95
2023-03-17T14:54:40.889Z,24.95
2023-03-17T14:55:43.206Z,24.97
2023-03-17T14:56:40.992Z,24.96
2023-03-17T14:57:40.978Z,24.96
2023-03-17T14:58:40.944Z,24.96
2023-03-17T14:59:40.932Z,24.97
2023-03-17T15:00:40.920Z,24.97
2023-03-17T15:01:40.895Z,24.97
2023-03-17T15:02:40.908Z,24.98
2023-03-17T15:03:40.859Z,24.98
2023-03-17T15:04:40.826Z,24.99
2023-03-17T15:05:40.890Z,24.98
2023-03-17T15:06:40.823Z,24.98
2023-03-17T15:07:40.789Z,24.97
2023-03-17T15:08:40.777Z,24.97
2023-03-17T15:09:40.753Z,24.96
2023-03-17T15:10:40.733Z,24.97
2023-03-17T15:11:40.765Z,24.97
2023-03-17T15:12:40.688Z,24.97
2023-03-17T15:13:40.681Z,24.96
2023-03-17T15:14:40.677Z,24.96
2023-03-17T15:15:40.681Z,24.96
2023-03-17T15:16:40.709Z,24.95
2023-03-17T15:17:40.631Z,24.94
2023-03-17T15:18:40.624Z,24.94
2023-03-17T15:19:40.615Z,24.95
2023-03-17T15:20:40.613Z,24.93
2023-03-17T15:21:40.639Z,24.93
2023-03-17T15:22:40.564Z,24.93
2023-03-17T15:23:40.556Z,24.91
2023-03-17T15:24:40.570Z,24.91
2023-03-17T15:25:40.519Z,24.89
2023-03-17T15:26:40.512Z,24.89
2023-03-17T15:27:40.498Z,24.86
2023-03-17T15:28:40.488Z,24.86
2023-03-17T15:29:40.478Z,24.85
2023-03-17T15:30:47.068Z,24.83
2023-03-17T15:32:40.440Z,24.82
2023-03-17T15:33:40.412Z,24.81
2023-03-17T15:34:40.416Z,24.80
2023-03-17T15:35:40.405Z,24.78
2023-03-17T15:36:40.368Z,24.76
2023-03-17T15:37:40.344Z,24.75
2023-03-17T15:38:40.374Z,24.74
2023-03-17T15:39:40.319Z,24.73
2023-03-17T15:40:40.328Z,24.72
2023-03-17T15:41:40.292Z,24.70
2023-03-17T15:42:40.282Z,24.70
2023-03-17T15:43:40.276Z,24.69
2023-03-17T15:44:40.283Z,24.68
2023-03-17T15:45:40.255Z,24.68
2023-03-17T15:46:40.244Z,24.69
2023-03-17T15:47:40.205Z,24.67
2023-03-17T15:48:40.207Z,24.67
2023-03-17T15:49:40.233Z,24.66
2023-03-17T15:50:40.191Z,24.65
2023-03-17T15:51:40.162Z,24.64
2023-03-17T15:52:40.148Z,24.64
2023-03-17T15:53:40.135Z,24.63
2023-03-17T15:54:40.109Z,24.62
2023-03-17T15:55:40.127Z,24.61
2023-03-17T15:56:40.155Z,24.61
2023-03-17T15:57:40.078Z,24.60
2023-03-17T15:58:40.085Z,24.59
2023-03-17T15:59:40.068Z,24.59
2023-03-17T16:00:41.036Z,24.58
2023-03-17T16:01:40.132Z,24.58
2023-03-17T16:02:40.054Z,24.56
2023-03-17T16:03:40.027Z,24.56
2023-03-17T16:04:40.078Z,24.56
2023-03-17T16:05:40.016Z,24.54
2023-03-17T16:06:40.009Z,24.53
2023-03-17T16:07:40.025Z,24.53
2023-03-17T16:08:39.991Z,24.53
2023-03-17T16:09:39.980Z,24.52
2023-03-17T16:10:39.963Z,24.51
2023-03-17T16:11:40.533Z,24.50
2023-03-17T16:12:39.944Z,24.49
2023-03-17T16:13:39.955Z,24.49
2023-03-17T16:14:39.929Z,24.48
2023-03-17T16:15:39.960Z,24.48
2023-03-17T16:16:39.915Z,24.48
2023-03-17T16:17:39.893Z,24.47
2023-03-17T16:18:39.907Z,24.46
2023-03-17T16:19:39.882Z,24.46
2023-03-17T16:20:39.880Z,24.46
2023-03-17T16:21:39.879Z,24.45
2023-03-17T16:22:39.843Z,24.45
2023-03-17T16:23:39.846Z,24.44
2023-03-17T16:24:39.816Z,24.43
2023-03-17T16:25:39.825Z,24.44
2023-03-17T16:26:39.807Z,24.43
2023-03-17T16:27:39.802Z,24.41
2023-03-17T16:28:39.771Z,24.42
2023-03-17T16:29:39.771Z,24.41
2023-03-17T16:30:39.757Z,24.40
2023-03-17T16:31:39.727Z,24.40
2023-03-17T16:32:39.784Z,24.38
2023-03-17T16:33:39.702Z,24.38
2023-03-17T16:34:39.697Z,24.37
2023-03-17T16:35:39.724Z,24.37
2023-03-17T16:36:39.689Z,24.36
2023-03-17T16:37:39.678Z,24.35
2023-03-17T16:38:39.650Z,24.34
2023-03-17T16:39:39.646Z,24.33
2023-03-17T16:40:39.636Z,24.33
2023-03-17T16:41:39.627Z,24.32
2023-03-17T16:42:39.624Z,24.31
2023-03-17T16:43:39.628Z,24.31
2023-03-17T16:44:39.645Z,24.31
2023-03-17T16:45:39.605Z,24.31
2023-03-17T16:46:39.690Z,24.30
2023-03-17T16:47:39.609Z,24.29
2023-03-17T16:48:39.603Z,24.28
2023-03-17T16:49:39.607Z,24.28
2023-03-17T16:50:39.567Z,24.26
2023-03-17T16:51:39.553Z,24.26
2023-03-17T16:52:39.567Z,24.26
2023-03-17T16:53:39.576Z,24.26
2023-03-17T16:54:39.548Z,24.26
2023-03-17T16:55:39.501Z,24.24
2023-03-17T16:56:39.546Z,24.23
2023-03-17T16:57:39.524Z,24.23
2023-03-17T16:58:39.511Z,24.21
2023-03-17T16:59:39.466Z,24.20
2023-03-17T17:00:39.430Z,24.21
2023-03-17T17:01:39.505Z,24.20
2023-03-17T17:02:39.446Z,24.20
2023-03-17T17:03:39.406Z,24.19
2023-03-17T17:04:39.398Z,24.19
2023-03-17T17:05:39.383Z,24.18
2023-03-17T17:06:39.378Z,24.17
2023-03-17T17:07:39.385Z,24.17
2023-03-17T17:08:39.353Z,24.16
2023-03-17T17:09:39.364Z,24.15
2023-03-17T17:10:39.333Z,24.15
2023-03-17T17:11:39.326Z,24.14
2023-03-17T17:12:39.333Z,24.15
2023-03-17T17:13:39.318Z,24.13
2023-03-17T17:14:39.306Z,24.13
2023-03-17T17:15:39.294Z,24.12
2023-03-17T17:16:39.331Z,24.12
2023-03-17T17:17:39.295Z,24.11
2023-03-17T17:18:39.281Z,24.11
2023-03-17T17:19:39.305Z,24.10
2023-03-17T17:20:39.304Z,24.10
2023-03-17T17:21:39.294Z,24.10
2023-03-17T17:22:39.268Z,24.09
2023-03-17T17:23:39.248Z,24.09
2023-03-17T17:24:39.225Z,24.09
2023-03-17T17:25:39.246Z,24.09
2023-03-17T17:26:39.207Z,24.08
2023-03-17T17:27:39.201Z,24.07
2023-03-17T17:28:39.193Z,24.06
2023-03-17T17:29:39.179Z,24.05
2023-03-17T17:30:39.174Z,24.05
2023-03-17T17:31:39.215Z,24.06
2023-03-17T17:32:39.187Z,24.06
2023-03-17T17:33:39.172Z,24.05
2023-03-17T17:34:39.689Z,24.05
2023-03-17T17:35:39.244Z,24.04
2023-03-17T17:36:39.152Z,24.04
2023-03-17T17:37:39.138Z,24.03
2023-03-17T17:38:39.137Z,24.02
2023-03-17T17:39:39.126Z,24.01
2023-03-17T17:40:39.134Z,24.02
2023-03-17T17:41:39.113Z,24.02
2023-03-17T17:42:39.097Z,24.01
2023-03-17T17:43:39.117Z,24.00
2023-03-17T17:44:39.307Z,24.00
2023-03-17T17:45:39.082Z,24.00
2023-03-17T17:46:39.111Z,23.99
2023-03-17T17:47:39.090Z,23.98
2023-03-17T17:48:39.072Z,23.97
2023-03-17T17:49:39.709Z,23.97
2023-03-17T17:50:39.045Z,23.97
2023-03-17T17:51:39.025Z,23.97
2023-03-17T17:52:39.019Z,23.97
2023-03-17T17:53:39.035Z,23.97
2023-03-17T17:54:39.056Z,23.96
2023-03-17T17:55:39.037Z,23.97
2023-03-17T17:56:39.007Z,23.97
2023-03-17T17:57:39.010Z,23.96
2023-03-17T17:58:38.994Z,23.96
2023-03-17T17:59:38.992Z,23.96
2023-03-17T18:00:38.961Z,23.95
2023-03-17T18:01:39.029Z,23.94
2023-03-17T18:02:38.948Z,23.93
2023-03-17T18:03:38.974Z,23.93
2023-03-17T18:04:38.986Z,23.93
2023-03-17T18:05:38.934Z,23.92
2023-03-17T18:06:38.969Z,23.91
2023-03-17T18:07:38.932Z,23.91
2023-03-17T18:08:38.914Z,23.90
2023-03-17T18:09:38.928Z,23.91
2023-03-17T18:10:38.915Z,23.91
2023-03-17T18:11:38.899Z,23.91
2023-03-17T18:12:38.887Z,23.90
2023-03-17T18:13:38.937Z,23.90
2023-03-17T18:14:38.890Z,23.90
2023-03-17T18:15:38.870Z,23.90
2023-03-17T18:16:38.947Z,23.89
2023-03-17T18:17:38.865Z,23.89
2023-03-17T18:18:38.867Z,23.88
2023-03-17T18:19:38.849Z,23.88
2023-03-17T18:20:38.870Z,23.89
2023-03-17T18:21:38.850Z,23.89
2023-03-17T18:22:38.832Z,23.88
2023-03-17T18:23:38.869Z,23.88
2023-03-17T18:24:38.846Z,23.87
2023-03-17T18:25:38.854Z,23.87
2023-03-17T18:26:38.835Z,23.86
2023-03-17T18:27:38.830Z,23.87
2023-03-17T18:28:38.832Z,23.85
2023-03-17T18:29:39.825Z,23.86
2023-03-17T18:30:38.818Z,23.86
2023-03-17T18:31:38.881Z,23.86
2023-03-17T18:32:38.841Z,23.86
2023-03-17T18:33:38.836Z,23.86
2023-03-17T18:34:38.818Z,23.86
2023-03-17T18:35:38.890Z,23.86
2023-03-17T18:36:38.796Z,23.86
2023-03-17T18:37:38.797Z,23.86
2023-03-17T18:38:38.816Z,23.84
2023-03-17T18:39:38.782Z,23.84
2023-03-17T18:40:38.770Z,23.85
2023-03-17T18:41:38.761Z,23.84
2023-03-17T18:42:38.755Z,23.84
2023-03-17T18:43:38.778Z,23.82
2023-03-17T18:44:38.768Z,23.83
2023-03-17T18:45:38.825Z,23.82
2023-03-17T18:46:38.754Z,23.82
2023-03-17T18:47:38.770Z,23.81
2023-03-17T18:48:38.772Z,23.81
2023-03-17T18:49:38.744Z,23.81
2023-03-17T18:50:38.747Z,23.81
2023-03-17T18:51:38.737Z,23.81
2023-03-17T18:52:38.720Z,23.81
2023-03-17T18:53:38.739Z,23.81
2023-03-17T18:54:38.789Z,23.80
2023-03-17T18:55:38.731Z,23.80
2023-03-17T18:56:38.712Z,23.80
2023-03-17T18:57:38.740Z,23.79
2023-03-17T18:58:38.720Z,23.80
2023-03-17T18:59:38.729Z,23.79
2023-03-17T19:00:38.739Z,23.79
2023-03-17T19:01:38.778Z,23.78
2023-03-17T19:02:38.695Z,23.76
2023-03-17T19:03:38.763Z,23.75
2023-03-17T19:04:38.694Z,23.75
2023-03-17T19:05:38.697Z,23.74
2023-03-17T19:06:38.674Z,23.73
2023-03-17T19:07:40.339Z,23.74
2023-03-17T19:08:38.670Z,23.73
2023-03-17T19:09:38.691Z,23.73
2023-03-17T19:10:38.696Z,23.73
2023-03-17T19:11:38.680Z,23.72
2023-03-17T19:12:38.717Z,23.71
2023-03-17T19:13:38.672Z,23.70
2023-03-17T19:14:38.698Z,23.71
2023-03-17T19:15:38.710Z,23.72
2023-03-17T19:16:38.722Z,23.72
2023-03-17T19:17:38.651Z,23.70
2023-03-17T19:18:40.274Z,23.71
2023-03-17T19:19:38.694Z,23.70
2023-03-17T19:20:38.657Z,23.70
2023-03-17T19:21:38.659Z,23.69
2023-03-17T19:22:38.644Z,23.68
2023-03-17T19:23:38.643Z,23.68
2023-03-17T19:24:38.644Z,23.68
2023-03-17T19:25:38.625Z,23.68
2023-03-17T19:26:38.630Z,23.67
2023-03-17T19:27:38.610Z,23.68
2023-03-17T19:28:38.622Z,23.67
2023-03-17T19:29:38.613Z,23.66
2023-03-17T19:30:38.642Z,23.66
2023-03-17T19:31:38.595Z,23.66
2023-03-17T19:32:38.636Z,23.66
2023-03-17T19:33:38.593Z,23.66
2023-03-17T19:34:38.606Z,23.66
2023-03-17T19:35:38.626Z,23.65
2023-03-17T19:36:38.617Z,23.65
2023-03-17T19:37:38.603Z,23.64
2023-03-17T19:38:38.603Z,23.65
2023-03-17T19:39:38.612Z,23.64
2023-03-17T19:40:38.606Z,23.65
2023-03-17T19:41:38.609Z,23.63
2023-03-17T19:42:38.635Z,23.64
2023-03-17T19:43:41.479Z,23.63
2023-03-17T19:44:38.655Z,23.64
2023-03-17T19:45:38.661Z,23.63
2023-03-17T19:46:38.636Z,23.64
2023-03-17T19:47:38.633Z,23.64
2023-03-17T19:48:38.642Z,23.64
2023-03-17T19:49:38.681Z,23.63
2023-03-17T19:50:38.649Z,23.63
2023-03-17T19:51:38.658Z,23.63
2023-03-17T19:52:38.654Z,23.62
2023-03-17T19:53:38.684Z,23.62
2023-03-17T19:54:38.674Z,23.60
2023-03-17T19:55:38.653Z,23.61
2023-03-17T19:56:38.782Z,23.60
2023-03-17T19:57:38.677Z,23.60
2023-03-17T19:58:38.651Z,23.59
2023-03-17T19:59:38.667Z,23.58
2023-03-17T20:00:38.669Z,23.57
2023-03-17T20:01:38.711Z,23.57
2023-03-17T20:02:38.656Z,23.58
2023-03-17T20:03:38.660Z,23.57
2023-03-17T20:04:38.713Z,23.56
2023-03-17T20:05:38.681Z,23.57
2023-03-17T20:06:38.670Z,23.55
2023-03-17T20:07:38.706Z,23.55
2023-03-17T20:08:38.684Z,23.54
2023-03-17T20:09:38.678Z,23.54
2023-03-17T20:10:38.676Z,23.54
2023-03-17T20:11:38.678Z,23.54
2023-03-17T20:12:38.693Z,23.54
2023-03-17T20:13:38.705Z,23.54
2023-03-17T20:14:38.747Z,23.54
2023-03-17T20:15:38.788Z,23.54
2023-03-17T20:16:40.376Z,23.54
2023-03-17T20:17:38.931Z,23.54
2023-03-17T20:18:38.938Z,23.54
2023-03-17T20:19:38.954Z,23.54
2023-03-17T20:20:38.951Z,23.54
2023-03-17T20:21:38.946Z,23.54
2023-03-17T20:22:38.953Z,23.54
2023-03-17T20:23:38.937Z,23.54
2023-03-17T20:24:38.954Z,23.54
2023-03-17T20:25:38.954Z,23.54
2023-03-17T20:26:38.947Z,23.53
2023-03-17T20:27:38.953Z,23.53
2023-03-17T20:28:38.970Z,23.53
2023-03-17T20:29:38.962Z,23.52
2023-03-17T20:30:39.005Z,23.52
2023-03-17T20:31:39.011Z,23.52
2023-03-17T20:32:39.048Z,23.52
2023-03-17T20:33:39.011Z,23.52
2023-03-17T20:34:38.999Z,23.51
2023-03-17T20:35:39.061Z,23.51
2023-03-17T20:36:39.022Z,23.52
2023-03-17T20:37:39.018Z,23.52
2023-03-17T20:38:39.068Z,23.52
2023-03-17T20:39:39.084Z,23.51
2023-03-17T20:40:39.030Z,23.51
2023-03-17T20:41:39.042Z,23.49
2023-03-17T20:42:39.061Z,23.49
2023-03-17T20:43:39.055Z,23.50
2023-03-17T20:44:39.079Z,23.49
2023-03-17T20:45:39.071Z,23.49
2023-03-17T20:46:39.134Z,23.49
2023-03-17T20:47:39.074Z,23.49
2023-03-17T20:48:39.083Z,23.48
2023-03-17T20:49:39.084Z,23.47
2023-03-17T20:50:39.103Z,23.47
2023-03-17T20:51:39.085Z,23.47
2023-03-17T20:52:39.110Z,23.48
2023-03-17T20:53:39.113Z,23.47
2023-03-17T20:54:39.121Z,23.46
2023-03-17T20:56:39.112Z,23.47
2023-03-17T22:01:39.491Z,23.36
